WJA2033 MWCR-CYYZ
Flight info
| Callsign | WJA2033 |
|---|---|
| Flight time | N/A |
| Altitude | 35000 |
| Route | RIKEL2 RIKEL DCT IKBIX Y183 PEAKY/N0455F370 DCT DVALL DCT ORL DCT GRIEF DCT LPERD DCT SUSYQ DCT CAE DCT NOOKS DCT DRIVN DCT PERRI Q103 RICCS DCT OXMAN LINNG3 |
| Aircraft | B38M/M-SDE1FGHILORVWXY/HB1 |
Departure
| Time | 2026-05-03 23:15 |
|---|---|
| Airport | Owen Roberts International Airport (MWCR) |
Arrival
| Time | N/A |
|---|---|
| Airport | Toronto Pearson International Airport (CYYZ) |
| Time | Latitude | Longitude | Altitude | Speed | Heading |
|---|---|---|---|---|---|
| 2026-05-03 22:58 | 19.29545 | -81.35655 | 21 ft | 0 kts | 345° |
| 2026-05-03 23:03 | 19.29543 | -81.35654 | 21 ft | 2 kts | 345° |
| 2026-05-03 23:03 | 19.29518 | -81.35647 | 21 ft | 4 kts | 345° |
| 2026-05-03 23:03 | 19.29495 | -81.35641 | 21 ft | 4 kts | 338° |
| 2026-05-03 23:04 | 19.29479 | -81.35625 | 21 ft | 4 kts | 278° |
| 2026-05-03 23:04 | 19.29481 | -81.35601 | 21 ft | 1 kts | 254° |
| 2026-05-03 23:04 | 19.29483 | -81.35596 | 21 ft | 0 kts | 254° |
| 2026-05-03 23:09 | 19.29480 | -81.35606 | 22 ft | 3 kts | 254° |
| 2026-05-03 23:09 | 19.29473 | -81.35634 | 30 ft | 5 kts | 255° |
| 2026-05-03 23:09 | 19.29463 | -81.35676 | 21 ft | 7 kts | 256° |
| 2026-05-03 23:09 | 19.29450 | -81.35730 | 21 ft | 8 kts | 256° |
| 2026-05-03 23:10 | 19.29434 | -81.35794 | 21 ft | 9 kts | 253° |
| 2026-05-03 23:10 | 19.29385 | -81.35815 | 20 ft | 9 kts | 168° |
| 2026-05-03 23:10 | 19.29311 | -81.35798 | 19 ft | 13 kts | 170° |
| 2026-05-03 23:10 | 19.29259 | -81.35857 | 19 ft | 13 kts | 255° |
| 2026-05-03 23:11 | 19.29235 | -81.35953 | 21 ft | 14 kts | 256° |
| 2026-05-03 23:11 | 19.29211 | -81.36055 | 20 ft | 15 kts | 256° |
| 2026-05-03 23:11 | 19.29186 | -81.36163 | 20 ft | 16 kts | 256° |
| 2026-05-03 23:11 | 19.29160 | -81.36285 | 20 ft | 17 kts | 257° |
| 2026-05-03 23:12 | 19.29132 | -81.36413 | 20 ft | 19 kts | 257° |
| 2026-05-03 23:12 | 19.29102 | -81.36554 | 19 ft | 21 kts | 257° |
| 2026-05-03 23:12 | 19.29069 | -81.36704 | 19 ft | 21 kts | 257° |
| 2026-05-03 23:12 | 19.29038 | -81.36843 | 22 ft | 17 kts | 257° |
| 2026-05-03 23:13 | 19.29061 | -81.36915 | 21 ft | 6 kts | 318° |
| 2026-05-03 23:13 | 19.29079 | -81.36956 | 21 ft | 7 kts | 276° |
| 2026-05-03 23:13 | 19.29051 | -81.37004 | 20 ft | 9 kts | 196° |
| 2026-05-03 23:13 | 19.28998 | -81.36978 | 20 ft | 8 kts | 95° |
| 2026-05-03 23:14 | 19.28999 | -81.36966 | 20 ft | 0 kts | 78° |
| 2026-05-03 23:14 | 19.29020 | -81.36872 | 22 ft | 44 kts | 76° |
| 2026-05-03 23:14 | 19.29151 | -81.36317 | 22 ft | 110 kts | 76° |
| 2026-05-03 23:14 | 19.29377 | -81.35336 | 24 ft | 153 kts | 73° |
| 2026-05-03 23:15 | 19.29676 | -81.34244 | 131 ft | 167 kts | 76° |
| 2026-05-03 23:15 | 19.29976 | -81.33080 | 456 ft | 163 kts | 71° |
| 2026-05-03 23:15 | 19.30685 | -81.32020 | 770 ft | 192 kts | 41° |
| 2026-05-03 23:15 | 19.31882 | -81.31501 | 1638 ft | 182 kts | 15° |
| 2026-05-03 23:16 | 19.33126 | -81.31062 | 2088 ft | 200 kts | 25° |
| 2026-05-03 23:16 | 19.34486 | -81.30477 | 2468 ft | 221 kts | 25° |
| 2026-05-03 23:16 | 19.35989 | -81.29850 | 2827 ft | 243 kts | 24° |
| 2026-05-03 23:16 | 19.37617 | -81.29187 | 3359 ft | 255 kts | 23° |
| 2026-05-03 23:17 | 19.39253 | -81.28530 | 4271 ft | 255 kts | 23° |
| 2026-05-03 23:17 | 19.40970 | -81.27845 | 4858 ft | 272 kts | 22° |
| 2026-05-03 23:17 | 19.42783 | -81.27127 | 5492 ft | 282 kts | 22° |
| 2026-05-03 23:17 | 19.44641 | -81.26392 | 6010 ft | 285 kts | 22° |
| 2026-05-03 23:18 | 19.46493 | -81.25660 | 6924 ft | 283 kts | 21° |
| 2026-05-03 23:18 | 19.48358 | -81.24923 | 7691 ft | 288 kts | 21° |
| 2026-05-03 23:18 | 19.50224 | -81.24187 | 8468 ft | 291 kts | 20° |
| 2026-05-03 23:18 | 19.52139 | -81.23429 | 9288 ft | 294 kts | 20° |
| 2026-05-03 23:19 | 19.54076 | -81.22663 | 10056 ft | 298 kts | 19° |
| 2026-05-03 23:19 | 19.56033 | -81.21888 | 10521 ft | 312 kts | 19° |
| 2026-05-03 23:19 | 19.58130 | -81.21059 | 10864 ft | 329 kts | 19° |
| 2026-05-03 23:19 | 19.60316 | -81.20193 | 11337 ft | 340 kts | 19° |
| 2026-05-03 23:20 | 19.62542 | -81.19312 | 12032 ft | 343 kts | 19° |
| 2026-05-03 23:20 | 19.64795 | -81.18420 | 12710 ft | 346 kts | 20° |
| 2026-05-03 23:20 | 19.67067 | -81.17520 | 13387 ft | 351 kts | 20° |
| 2026-05-03 23:20 | 19.69366 | -81.16608 | 14032 ft | 354 kts | 20° |
| 2026-05-03 23:21 | 19.71683 | -81.15691 | 14636 ft | 357 kts | 20° |
| 2026-05-03 23:21 | 19.73996 | -81.14774 | 15249 ft | 359 kts | 19° |
| 2026-05-03 23:21 | 19.76348 | -81.13841 | 15855 ft | 362 kts | 19° |
| 2026-05-03 23:21 | 19.78726 | -81.12897 | 16459 ft | 364 kts | 19° |
| 2026-05-03 23:22 | 19.83495 | -81.11004 | 17616 ft | 370 kts | 19° |
| 2026-05-03 23:22 | 19.85915 | -81.10044 | 18175 ft | 373 kts | 19° |
| 2026-05-03 23:22 | 19.88353 | -81.09076 | 18662 ft | 375 kts | 19° |
| 2026-05-03 23:23 | 19.90823 | -81.08094 | 19115 ft | 379 kts | 19° |
| 2026-05-03 23:23 | 19.93305 | -81.07108 | 19554 ft | 382 kts | 19° |
| 2026-05-03 23:23 | 19.95779 | -81.06124 | 19982 ft | 385 kts | 19° |
| 2026-05-03 23:23 | 19.98300 | -81.05130 | 20411 ft | 388 kts | 17° |
| 2026-05-03 23:24 | 20.00948 | -81.04634 | 20830 ft | 387 kts | 359° |
| 2026-05-03 23:24 | 20.03651 | -81.04694 | 21225 ft | 391 kts | 356° |
| 2026-05-03 23:24 | 20.06382 | -81.04778 | 21628 ft | 393 kts | 356° |
| 2026-05-03 23:24 | 20.09134 | -81.04885 | 22054 ft | 396 kts | 355° |
| 2026-05-03 23:25 | 20.11879 | -81.05002 | 22458 ft | 399 kts | 355° |
| 2026-05-03 23:25 | 20.14667 | -81.05125 | 22862 ft | 402 kts | 355° |
| 2026-05-03 23:25 | 20.17486 | -81.05252 | 23259 ft | 405 kts | 355° |
| 2026-05-03 23:25 | 20.20312 | -81.05381 | 23638 ft | 407 kts | 355° |
| 2026-05-03 23:26 | 20.23127 | -81.05510 | 23957 ft | 410 kts | 355° |
| 2026-05-03 23:26 | 20.25990 | -81.05642 | 24306 ft | 412 kts | 355° |
| 2026-05-03 23:26 | 20.28835 | -81.05772 | 24629 ft | 414 kts | 354° |
| 2026-05-03 23:26 | 20.31722 | -81.05905 | 24954 ft | 416 kts | 354° |
| 2026-05-03 23:27 | 20.34625 | -81.06039 | 25292 ft | 418 kts | 354° |
| 2026-05-03 23:27 | 20.37537 | -81.06174 | 25630 ft | 420 kts | 354° |
| 2026-05-03 23:27 | 20.40467 | -81.06309 | 25958 ft | 422 kts | 354° |
| 2026-05-03 23:27 | 20.43417 | -81.06445 | 26279 ft | 424 kts | 354° |
| 2026-05-03 23:28 | 20.46385 | -81.06582 | 26603 ft | 426 kts | 354° |
| 2026-05-03 23:28 | 20.49362 | -81.06720 | 26923 ft | 428 kts | 354° |
| 2026-05-03 23:28 | 20.52303 | -81.06856 | 27230 ft | 430 kts | 354° |
| 2026-05-03 23:28 | 20.55305 | -81.06995 | 27534 ft | 432 kts | 354° |
| 2026-05-03 23:29 | 20.58317 | -81.07134 | 27849 ft | 434 kts | 354° |
| 2026-05-03 23:29 | 20.61355 | -81.07275 | 28131 ft | 437 kts | 354° |
| 2026-05-03 23:29 | 20.64399 | -81.07416 | 28414 ft | 439 kts | 354° |
| 2026-05-03 23:29 | 20.67464 | -81.07558 | 28709 ft | 441 kts | 354° |
| 2026-05-03 23:30 | 20.70539 | -81.07700 | 28996 ft | 443 kts | 354° |
| 2026-05-03 23:30 | 20.73635 | -81.07844 | 29275 ft | 445 kts | 354° |
| 2026-05-03 23:30 | 20.76696 | -81.07986 | 29544 ft | 447 kts | 354° |
| 2026-05-03 23:30 | 20.79823 | -81.08131 | 29819 ft | 449 kts | 354° |
| 2026-05-03 23:31 | 20.82956 | -81.08277 | 30082 ft | 451 kts | 353° |
| 2026-05-03 23:31 | 20.86102 | -81.08423 | 30311 ft | 453 kts | 353° |
| 2026-05-03 23:31 | 20.89258 | -81.08569 | 30556 ft | 454 kts | 353° |
| 2026-05-03 23:31 | 20.92427 | -81.08717 | 30815 ft | 455 kts | 353° |
| 2026-05-03 23:32 | 20.95554 | -81.08862 | 31078 ft | 455 kts | 353° |
| 2026-05-03 23:32 | 20.98725 | -81.09010 | 31316 ft | 456 kts | 353° |
| 2026-05-03 23:32 | 21.01912 | -81.09158 | 31547 ft | 458 kts | 353° |
| 2026-05-03 23:32 | 21.05103 | -81.09307 | 31779 ft | 459 kts | 353° |
| 2026-05-03 23:33 | 21.08296 | -81.09455 | 32008 ft | 460 kts | 353° |
| 2026-05-03 23:33 | 21.11504 | -81.09605 | 32240 ft | 461 kts | 353° |
| 2026-05-03 23:33 | 21.14679 | -81.09753 | 32448 ft | 462 kts | 353° |
| 2026-05-03 23:33 | 21.17898 | -81.09903 | 32678 ft | 463 kts | 353° |
| 2026-05-03 23:34 | 21.21132 | -81.10054 | 32896 ft | 465 kts | 353° |
| 2026-05-03 23:34 | 21.24386 | -81.10206 | 33146 ft | 464 kts | 353° |
| 2026-05-03 23:34 | 21.27578 | -81.10355 | 33431 ft | 464 kts | 353° |
| 2026-05-03 23:34 | 21.30808 | -81.10506 | 33742 ft | 463 kts | 353° |
| 2026-05-03 23:35 | 21.34023 | -81.10656 | 34047 ft | 462 kts | 353° |
| 2026-05-03 23:35 | 21.37247 | -81.10807 | 34308 ft | 460 kts | 352° |
| 2026-05-03 23:35 | 21.40410 | -81.10955 | 34563 ft | 459 kts | 352° |
| 2026-05-03 23:35 | 21.43609 | -81.11105 | 34813 ft | 458 kts | 352° |
| 2026-05-03 23:36 | 21.46797 | -81.11254 | 34987 ft | 459 kts | 352° |
| 2026-05-03 23:36 | 21.49994 | -81.11404 | 35018 ft | 459 kts | 352° |
| 2026-05-03 23:36 | 21.56359 | -81.11702 | 35034 ft | 457 kts | 352° |
| 2026-05-03 23:37 | 21.62708 | -81.12000 | 35016 ft | 455 kts | 352° |
| 2026-05-03 23:37 | 21.69000 | -81.12296 | 35016 ft | 455 kts | 352° |
| 2026-05-03 23:38 | 21.75348 | -81.12594 | 35015 ft | 455 kts | 352° |
| 2026-05-03 23:38 | 21.81687 | -81.12892 | 35015 ft | 455 kts | 352° |
| 2026-05-03 23:39 | 21.87994 | -81.13189 | 35015 ft | 455 kts | 352° |
| 2026-05-03 23:39 | 21.94358 | -81.13489 | 35016 ft | 457 kts | 351° |
| 2026-05-03 23:40 | 22.00687 | -81.13788 | 35015 ft | 458 kts | 351° |
| 2026-05-03 23:40 | 22.07030 | -81.14087 | 35015 ft | 457 kts | 351° |
| 2026-05-03 23:41 | 22.13399 | -81.14388 | 35012 ft | 458 kts | 351° |
| 2026-05-03 23:41 | 22.19768 | -81.14690 | 35012 ft | 458 kts | 351° |
| 2026-05-03 23:42 | 22.26151 | -81.14992 | 35016 ft | 458 kts | 351° |
| 2026-05-03 23:42 | 22.32496 | -81.15293 | 35011 ft | 458 kts | 351° |
| 2026-05-03 23:43 | 22.38877 | -81.15595 | 35004 ft | 458 kts | 351° |
| 2026-05-03 23:43 | 22.45222 | -81.15897 | 35009 ft | 458 kts | 351° |
| 2026-05-03 23:44 | 22.51601 | -81.16200 | 35002 ft | 458 kts | 351° |
| 2026-05-03 23:44 | 22.57991 | -81.16503 | 35010 ft | 458 kts | 351° |
| 2026-05-03 23:45 | 22.64326 | -81.16805 | 35006 ft | 459 kts | 351° |
| 2026-05-03 23:45 | 22.70713 | -81.17110 | 35007 ft | 458 kts | 351° |
| 2026-05-03 23:46 | 22.77103 | -81.17414 | 34996 ft | 458 kts | 351° |
| 2026-05-03 23:46 | 22.83449 | -81.17717 | 35008 ft | 458 kts | 351° |
| 2026-05-03 23:47 | 22.89836 | -81.18022 | 35009 ft | 459 kts | 351° |
| 2026-05-03 23:47 | 22.96201 | -81.18327 | 35008 ft | 459 kts | 351° |
| 2026-05-03 23:48 | 23.02593 | -81.18633 | 35007 ft | 459 kts | 351° |
| 2026-05-03 23:48 | 23.08987 | -81.18939 | 35006 ft | 459 kts | 351° |